sensor_id;sensor_type;location;lat;lon;timestamp;pressure;altitude;pressure_sealevel;temperature;humidity
55217;BME280;41086;46.736;15.666;2022-07-17T00:01:12;99230.47;;;15.62;100.00
55217;BME280;41086;46.736;15.666;2022-07-17T00:03:38;99230.81;;;15.58;100.00
55217;BME280;41086;46.736;15.666;2022-07-17T00:06:06;99243.72;;;15.52;100.00
55217;BME280;41086;46.736;15.666;2022-07-17T00:08:32;99247.56;;;15.48;100.00
55217;BME280;41086;46.736;15.666;2022-07-17T00:10:59;99246.22;;;15.43;100.00
55217;BME280;41086;46.736;15.666;2022-07-17T00:13:27;99247.41;;;15.39;100.00
55217;BME280;41086;46.736;15.666;2022-07-17T00:15:54;99253.84;;;15.36;100.00
55217;BME280;41086;46.736;15.666;2022-07-17T00:18:20;99249.63;;;15.34;100.00
55217;BME280;41086;46.736;15.666;2022-07-17T00:20:47;99256.97;;;15.30;100.00
55217;BME280;41086;46.736;15.666;2022-07-17T00:23:14;99255.53;;;15.26;100.00
55217;BME280;41086;46.736;15.666;2022-07-17T00:25:40;99255.88;;;15.21;100.00
55217;BME280;41086;46.736;15.666;2022-07-17T00:28:07;99252.34;;;15.21;100.00
55217;BME280;41086;46.736;15.666;2022-07-17T00:30:34;99259.53;;;15.20;100.00
55217;BME280;41086;46.736;15.666;2022-07-17T00:33:01;99255.25;;;15.18;100.00
55217;BME280;41086;46.736;15.666;2022-07-17T00:35:27;99269.69;;;15.15;100.00
55217;BME280;41086;46.736;15.666;2022-07-17T00:37:54;99267.00;;;15.15;100.00
55217;BME280;41086;46.736;15.666;2022-07-17T00:40:22;99268.94;;;15.13;100.00
55217;BME280;41086;46.736;15.666;2022-07-17T00:42:50;99271.50;;;15.15;100.00
55217;BME280;41086;46.736;15.666;2022-07-17T00:45:18;99274.28;;;15.13;100.00
55217;BME280;41086;46.736;15.666;2022-07-17T00:48:04;99279.00;;;15.10;100.00
55217;BME280;41086;46.736;15.666;2022-07-17T00:50:35;99284.69;;;15.05;100.00
55217;BME280;41086;46.736;15.666;2022-07-17T00:53:02;99272.41;;;15.02;100.00
55217;BME280;41086;46.736;15.666;2022-07-17T00:55:29;99285.16;;;14.99;100.00
55217;BME280;41086;46.736;15.666;2022-07-17T00:58:12;99296.25;;;14.93;100.00
55217;BME280;41086;46.736;15.666;2022-07-17T01:00:39;99297.69;;;14.85;100.00
55217;BME280;41086;46.736;15.666;2022-07-17T01:03:07;99297.69;;;14.85;100.00
55217;BME280;41086;46.736;15.666;2022-07-17T01:05:35;99304.94;;;14.83;100.00
55217;BME280;41086;46.736;15.666;2022-07-17T01:08:02;99298.00;;;14.81;100.00
55217;BME280;41086;46.736;15.666;2022-07-17T01:10:29;99313.41;;;14.77;100.00
55217;BME280;41086;46.736;15.666;2022-07-17T01:12:56;99305.94;;;14.70;100.00
55217;BME280;41086;46.736;15.666;2022-07-17T01:15:23;99307.13;;;14.66;100.00
55217;BME280;41086;46.736;15.666;2022-07-17T01:17:50;99308.63;;;14.57;100.00
55217;BME280;41086;46.736;15.666;2022-07-17T01:20:17;99316.31;;;14.49;100.00
55217;BME280;41086;46.736;15.666;2022-07-17T01:22:45;99310.34;;;14.45;100.00
55217;BME280;41086;46.736;15.666;2022-07-17T01:25:13;99314.09;;;14.43;100.00
55217;BME280;41086;46.736;15.666;2022-07-17T01:27:40;99310.66;;;14.40;100.00
55217;BME280;41086;46.736;15.666;2022-07-17T01:30:08;99311.63;;;14.39;100.00
55217;BME280;41086;46.736;15.666;2022-07-17T01:32:35;99309.81;;;14.40;100.00
55217;BME280;41086;46.736;15.666;2022-07-17T01:35:03;99308.84;;;14.41;100.00
55217;BME280;41086;46.736;15.666;2022-07-17T01:37:30;99310.44;;;14.44;100.00
55217;BME280;41086;46.736;15.666;2022-07-17T01:39:57;99312.59;;;14.38;100.00
55217;BME280;41086;46.736;15.666;2022-07-17T01:42:24;99315.28;;;14.26;100.00
55217;BME280;41086;46.736;15.666;2022-07-17T01:44:52;99321.25;;;14.16;100.00
55217;BME280;41086;46.736;15.666;2022-07-17T01:47:19;99314.13;;;14.17;100.00
55217;BME280;41086;46.736;15.666;2022-07-17T01:49:47;99322.13;;;14.17;100.00
55217;BME280;41086;46.736;15.666;2022-07-17T01:52:14;99318.81;;;14.13;100.00
55217;BME280;41086;46.736;15.666;2022-07-17T01:54:41;99325.19;;;14.11;100.00
55217;BME280;41086;46.736;15.666;2022-07-17T01:57:08;99322.88;;;14.06;100.00
55217;BME280;41086;46.736;15.666;2022-07-17T01:59:35;99330.22;;;14.03;100.00
55217;BME280;41086;46.736;15.666;2022-07-17T02:02:02;99324.03;;;14.02;100.00
55217;BME280;41086;46.736;15.666;2022-07-17T02:04:29;99327.88;;;13.98;100.00
55217;BME280;41086;46.736;15.666;2022-07-17T02:06:56;99330.84;;;13.93;100.00
55217;BME280;41086;46.736;15.666;2022-07-17T02:09:23;99339.28;;;13.87;100.00
55217;BME280;41086;46.736;15.666;2022-07-17T02:11:49;99335.22;;;13.82;100.00
55217;BME280;41086;46.736;15.666;2022-07-17T02:14:18;99339.16;;;13.76;100.00
55217;BME280;41086;46.736;15.666;2022-07-17T02:16:44;99329.88;;;13.69;100.00
55217;BME280;41086;46.736;15.666;2022-07-17T02:19:11;99342.56;;;13.65;100.00
55217;BME280;41086;46.736;15.666;2022-07-17T02:21:39;99346.47;;;13.60;100.00
55217;BME280;41086;46.736;15.666;2022-07-17T02:24:06;99339.44;;;13.59;100.00
55217;BME280;41086;46.736;15.666;2022-07-17T02:26:33;99339.44;;;13.59;100.00
55217;BME280;41086;46.736;15.666;2022-07-17T02:29:01;99340.41;;;13.58;100.00
55217;BME280;41086;46.736;15.666;2022-07-17T02:31:28;99340.50;;;13.56;100.00
55217;BME280;41086;46.736;15.666;2022-07-17T02:33:55;99342.31;;;13.56;100.00
55217;BME280;41086;46.736;15.666;2022-07-17T02:36:21;99338.88;;;13.53;100.00
55217;BME280;41086;46.736;15.666;2022-07-17T02:38:48;99341.56;;;13.53;100.00
55217;BME280;41086;46.736;15.666;2022-07-17T02:41:15;99345.81;;;13.56;100.00
55217;BME280;41086;46.736;15.666;2022-07-17T02:43:44;99349.31;;;13.57;100.00
55217;BME280;41086;46.736;15.666;2022-07-17T02:46:11;99345.94;;;13.55;100.00
55217;BME280;41086;46.736;15.666;2022-07-17T02:48:40;99357.66;;;13.52;100.00
55217;BME280;41086;46.736;15.666;2022-07-17T02:51:07;99354.03;;;13.53;100.00
55217;BME280;41086;46.736;15.666;2022-07-17T02:53:34;99363.19;;;13.49;100.00
55217;BME280;41086;46.736;15.666;2022-07-17T02:56:01;99359.97;;;13.44;100.00
55217;BME280;41086;46.736;15.666;2022-07-17T02:58:28;99362.94;;;13.39;100.00
55217;BME280;41086;46.736;15.666;2022-07-17T03:00:54;99365.13;;;13.33;100.00
55217;BME280;41086;46.736;15.666;2022-07-17T03:03:21;99364.59;;;13.27;100.00
55217;BME280;41086;46.736;15.666;2022-07-17T03:05:49;99366.56;;;13.24;100.00
55217;BME280;41086;46.736;15.666;2022-07-17T03:08:15;99368.66;;;13.19;100.00
55217;BME280;41086;46.736;15.666;2022-07-17T03:10:42;99372.38;;;13.16;100.00
55217;BME280;41086;46.736;15.666;2022-07-17T03:13:09;99368.13;;;13.14;100.00
55217;BME280;41086;46.736;15.666;2022-07-17T03:15:35;99373.47;;;13.14;100.00
55217;BME280;41086;46.736;15.666;2022-07-17T03:18:02;99369.91;;;13.13;100.00
55217;BME280;41086;46.736;15.666;2022-07-17T03:20:29;99383.22;;;13.13;100.00
55217;BME280;41086;46.736;15.666;2022-07-17T03:22:56;99388.53;;;13.13;100.00
55217;BME280;41086;46.736;15.666;2022-07-17T03:25:23;99387.63;;;13.14;100.00
55217;BME280;41086;46.736;15.666;2022-07-17T03:27:49;99395.69;;;13.13;100.00
55217;BME280;41086;46.736;15.666;2022-07-17T03:30:16;99394.75;;;13.14;100.00
55217;BME280;41086;46.736;15.666;2022-07-17T03:32:43;99397.41;;;13.14;100.00
55217;BME280;41086;46.736;15.666;2022-07-17T03:35:09;99402.53;;;13.17;100.00
55217;BME280;41086;46.736;15.666;2022-07-17T03:37:36;99403.59;;;13.14;100.00
55217;BME280;41086;46.736;15.666;2022-07-17T03:40:04;99402.81;;;13.12;100.00
55217;BME280;41086;46.736;15.666;2022-07-17T03:42:32;99408.22;;;13.11;100.00
55217;BME280;41086;46.736;15.666;2022-07-17T03:44:59;99415.47;;;13.08;100.00
55217;BME280;41086;46.736;15.666;2022-07-17T03:47:25;99414.72;;;13.06;100.00
55217;BME280;41086;46.736;15.666;2022-07-17T03:49:52;99410.63;;;13.01;100.00
55217;BME280;41086;46.736;15.666;2022-07-17T03:52:19;99407.88;;;13.02;100.00
55217;BME280;41086;46.736;15.666;2022-07-17T03:54:45;99415.19;;;12.99;100.00
55217;BME280;41086;46.736;15.666;2022-07-17T03:57:12;99412.72;;;12.96;100.00
55217;BME280;41086;46.736;15.666;2022-07-17T03:59:39;99418.25;;;12.93;100.00
55217;BME280;41086;46.736;15.666;2022-07-17T04:02:05;99419.09;;;12.93;100.00
55217;BME280;41086;46.736;15.666;2022-07-17T04:04:32;99417.84;;;12.99;100.00
55217;BME280;41086;46.736;15.666;2022-07-17T04:06:59;99417.78;;;13.00;100.00
55217;BME280;41086;46.736;15.666;2022-07-17T04:09:25;99414.78;;;13.05;100.00
55217;BME280;41086;46.736;15.666;2022-07-17T04:11:52;99415.16;;;13.13;100.00
55217;BME280;41086;46.736;15.666;2022-07-17T04:14:18;99420.19;;;13.18;100.00
55217;BME280;41086;46.736;15.666;2022-07-17T04:16:45;99425.81;;;13.27;100.00
55217;BME280;41086;46.736;15.666;2022-07-17T04:19:12;99419.13;;;13.35;100.00
55217;BME280;41086;46.736;15.666;2022-07-17T04:21:38;99428.31;;;13.43;100.00
55217;BME280;41086;46.736;15.666;2022-07-17T04:24:05;99429.63;;;13.50;100.00
55217;BME280;41086;46.736;15.666;2022-07-17T04:26:32;99422.75;;;13.61;100.00
55217;BME280;41086;46.736;15.666;2022-07-17T04:28:59;99428.50;;;13.67;100.00
55217;BME280;41086;46.736;15.666;2022-07-17T04:31:26;99424.81;;;13.70;100.00
55217;BME280;41086;46.736;15.666;2022-07-17T04:33:53;99428.66;;;13.79;100.00
55217;BME280;41086;46.736;15.666;2022-07-17T04:36:20;99434.59;;;13.69;100.00
55217;BME280;41086;46.736;15.666;2022-07-17T04:38:47;99430.59;;;13.77;100.00
55217;BME280;41086;46.736;15.666;2022-07-17T04:41:13;99429.75;;;13.89;100.00
55217;BME280;41086;46.736;15.666;2022-07-17T04:43:40;99433.44;;;14.01;100.00
55217;BME280;41086;46.736;15.666;2022-07-17T04:46:07;99434.59;;;14.09;100.00
55217;BME280;41086;46.736;15.666;2022-07-17T04:48:33;99437.81;;;14.14;100.00
55217;BME280;41086;46.736;15.666;2022-07-17T04:51:00;99440.81;;;14.23;100.00
55217;BME280;41086;46.736;15.666;2022-07-17T04:53:27;99440.91;;;14.34;100.00
55217;BME280;41086;46.736;15.666;2022-07-17T04:55:55;99446.66;;;14.40;100.00
55217;BME280;41086;46.736;15.666;2022-07-17T04:58:21;99455.53;;;14.41;100.00
55217;BME280;41086;46.736;15.666;2022-07-17T05:00:48;99458.41;;;14.51;100.00
55217;BME280;41086;46.736;15.666;2022-07-17T05:03:15;99444.47;;;14.60;100.00
55217;BME280;41086;46.736;15.666;2022-07-17T05:05:41;99448.41;;;14.67;100.00
55217;BME280;41086;46.736;15.666;2022-07-17T05:08:08;99455.56;;;14.79;100.00
55217;BME280;41086;46.736;15.666;2022-07-17T05:10:35;99456.28;;;14.94;100.00
55217;BME280;41086;46.736;15.666;2022-07-17T05:13:01;99458.19;;;15.05;100.00
55217;BME280;41086;46.736;15.666;2022-07-17T05:15:28;99464.47;;;15.17;100.00
55217;BME280;41086;46.736;15.666;2022-07-17T05:17:55;99464.53;;;15.28;100.00
55217;BME280;41086;46.736;15.666;2022-07-17T05:20:21;99466.31;;;15.40;100.00
55217;BME280;41086;46.736;15.666;2022-07-17T05:22:48;99475.16;;;15.54;100.00
55217;BME280;41086;46.736;15.666;2022-07-17T05:25:15;99475.97;;;15.67;100.00
55217;BME280;41086;46.736;15.666;2022-07-17T05:27:41;99490.16;;;15.80;100.00
55217;BME280;41086;46.736;15.666;2022-07-17T05:30:08;99492.88;;;15.91;100.00
55217;BME280;41086;46.736;15.666;2022-07-17T05:32:35;99495.59;;;16.03;100.00
55217;BME280;41086;46.736;15.666;2022-07-17T05:35:01;99493.56;;;16.17;100.00
55217;BME280;41086;46.736;15.666;2022-07-17T05:37:28;99501.03;;;16.25;100.00
55217;BME280;41086;46.736;15.666;2022-07-17T05:39:54;99503.72;;;16.36;100.00
55217;BME280;41086;46.736;15.666;2022-07-17T05:42:21;99511.81;;;16.48;100.00
55217;BME280;41086;46.736;15.666;2022-07-17T05:44:48;99515.22;;;16.61;100.00
55217;BME280;41086;46.736;15.666;2022-07-17T05:47:14;99512.59;;;16.72;100.00
55217;BME280;41086;46.736;15.666;2022-07-17T05:49:41;99512.63;;;16.83;100.00
55217;BME280;41086;46.736;15.666;2022-07-17T05:52:08;99512.50;;;16.96;100.00
55217;BME280;41086;46.736;15.666;2022-07-17T05:54:34;99510.56;;;17.10;100.00
55217;BME280;41086;46.736;15.666;2022-07-17T05:57:01;99519.47;;;17.21;100.00
55217;BME280;41086;46.736;15.666;2022-07-17T05:59:35;99510.94;;;17.39;100.00
55217;BME280;41086;46.736;15.666;2022-07-17T06:02:02;99515.91;;;17.55;100.00
55217;BME280;41086;46.736;15.666;2022-07-17T06:04:29;99520.50;;;17.64;100.00
55217;BME280;41086;46.736;15.666;2022-07-17T06:06:56;99520.13;;;17.80;100.00
55217;BME280;41086;46.736;15.666;2022-07-17T06:09:22;99517.56;;;17.89;100.00
55217;BME280;41086;46.736;15.666;2022-07-17T06:11:49;99523.41;;;17.94;100.00
55217;BME280;41086;46.736;15.666;2022-07-17T06:14:16;99516.94;;;17.97;100.00
55217;BME280;41086;46.736;15.666;2022-07-17T06:16:42;99517.75;;;18.09;100.00
55217;BME280;41086;46.736;15.666;2022-07-17T06:19:09;99529.00;;;18.24;100.00
55217;BME280;41086;46.736;15.666;2022-07-17T06:21:36;99524.84;;;18.31;98.98
55217;BME280;41086;46.736;15.666;2022-07-17T06:24:03;99531.72;;;18.45;94.77
55217;BME280;41086;46.736;15.666;2022-07-17T06:26:30;99528.78;;;18.48;92.44
55217;BME280;41086;46.736;15.666;2022-07-17T06:28:58;99534.69;;;18.63;100.00
55217;BME280;41086;46.736;15.666;2022-07-17T06:31:27;99538.38;;;18.82;100.00
55217;BME280;41086;46.736;15.666;2022-07-17T06:33:54;99542.16;;;19.01;87.08
55217;BME280;41086;46.736;15.666;2022-07-17T06:36:22;99541.41;;;19.20;96.50
55217;BME280;41086;46.736;15.666;2022-07-17T06:38:49;99543.72;;;19.34;84.47
55217;BME280;41086;46.736;15.666;2022-07-17T06:41:16;99542.22;;;19.51;100.00
55217;BME280;41086;46.736;15.666;2022-07-17T06:43:43;99541.66;;;19.88;100.00
55217;BME280;41086;46.736;15.666;2022-07-17T06:46:10;99541.38;;;20.10;90.52
55217;BME280;41086;46.736;15.666;2022-07-17T06:48:37;99535.56;;;20.05;85.62
55217;BME280;41086;46.736;15.666;2022-07-17T06:51:04;99533.44;;;19.99;82.17
55217;BME280;41086;46.736;15.666;2022-07-17T06:53:32;99533.16;;;20.02;85.82
55217;BME280;41086;46.736;15.666;2022-07-17T06:55:58;99536.88;;;20.01;84.71
55217;BME280;41086;46.736;15.666;2022-07-17T06:58:26;99535.44;;;20.07;96.73
55217;BME280;41086;46.736;15.666;2022-07-17T07:00:53;99533.34;;;20.20;92.43
55217;BME280;41086;46.736;15.666;2022-07-17T07:03:22;99534.19;;;20.30;82.06
55217;BME280;41086;46.736;15.666;2022-07-17T07:05:49;99540.72;;;20.57;85.61
55217;BME280;41086;46.736;15.666;2022-07-17T07:08:17;99538.56;;;20.51;84.86
55217;BME280;41086;46.736;15.666;2022-07-17T07:10:45;99547.66;;;20.59;76.11
55217;BME280;41086;46.736;15.666;2022-07-17T07:13:13;99549.34;;;20.80;77.26
55217;BME280;41086;46.736;15.666;2022-07-17T07:15:40;99545.19;;;20.95;72.99
55217;BME280;41086;46.736;15.666;2022-07-17T07:18:06;99541.31;;;21.08;66.86
55217;BME280;41086;46.736;15.666;2022-07-17T07:20:34;99549.22;;;21.19;61.85
55217;BME280;41086;46.736;15.666;2022-07-17T07:23:01;99539.41;;;21.28;60.98
55217;BME280;41086;46.736;15.666;2022-07-17T07:25:33;99547.94;;;21.23;59.97
55217;BME280;41086;46.736;15.666;2022-07-17T07:30:33;99546.34;;;21.40;58.13
55217;BME280;41086;46.736;15.666;2022-07-17T07:33:02;99537.34;;;21.49;54.05
55217;BME280;41086;46.736;15.666;2022-07-17T07:35:29;99532.47;;;21.62;54.30
55217;BME280;41086;46.736;15.666;2022-07-17T07:37:57;99529.00;;;21.70;50.33
55217;BME280;41086;46.736;15.666;2022-07-17T07:40:27;99533.50;;;21.79;49.74
55217;BME280;41086;46.736;15.666;2022-07-17T07:42:55;99539.38;;;21.92;56.85
55217;BME280;41086;46.736;15.666;2022-07-17T07:45:23;99540.03;;;22.04;55.12
55217;BME280;41086;46.736;15.666;2022-07-17T07:47:51;99538.50;;;22.20;57.97
55217;BME280;41086;46.736;15.666;2022-07-17T07:50:18;99531.44;;;22.37;60.45
55217;BME280;41086;46.736;15.666;2022-07-17T07:52:46;99533.06;;;22.55;53.72
55217;BME280;41086;46.736;15.666;2022-07-17T07:55:14;99525.66;;;22.57;52.36
55217;BME280;41086;46.736;15.666;2022-07-17T07:57:49;99533.16;;;22.64;51.58
55217;BME280;41086;46.736;15.666;2022-07-17T08:00:16;99528.81;;;22.71;52.26
55217;BME280;41086;46.736;15.666;2022-07-17T08:02:43;99534.72;;;22.92;55.52
55217;BME280;41086;46.736;15.666;2022-07-17T08:05:12;99529.31;;;22.92;50.40
55217;BME280;41086;46.736;15.666;2022-07-17T08:07:43;99535.88;;;23.08;52.86
55217;BME280;41086;46.736;15.666;2022-07-17T08:10:09;99525.66;;;23.28;55.79
55217;BME280;41086;46.736;15.666;2022-07-17T08:12:36;99530.41;;;23.34;52.14
55217;BME280;41086;46.736;15.666;2022-07-17T08:15:16;99530.03;;;23.29;48.12
55217;BME280;41086;46.736;15.666;2022-07-17T08:17:43;99530.41;;;23.34;54.01
55217;BME280;41086;46.736;15.666;2022-07-17T08:20:12;99527.38;;;23.37;48.00
55217;BME280;41086;46.736;15.666;2022-07-17T08:22:41;99530.16;;;23.53;51.90
55217;BME280;41086;46.736;15.666;2022-07-17T08:25:29;99535.38;;;23.81;51.02
55217;BME280;41086;46.736;15.666;2022-07-17T08:27:56;99522.91;;;24.04;51.75
55217;BME280;41086;46.736;15.666;2022-07-17T08:30:24;99536.16;;;24.32;52.62
55217;BME280;41086;46.736;15.666;2022-07-17T08:32:55;99533.81;;;24.53;46.73
55217;BME280;41086;46.736;15.666;2022-07-17T08:35:26;99535.00;;;24.84;54.54
55217;BME280;41086;46.736;15.666;2022-07-17T08:37:52;99524.09;;;25.08;50.40
55217;BME280;41086;46.736;15.666;2022-07-17T08:40:23;99520.84;;;25.21;46.24
55217;BME280;41086;46.736;15.666;2022-07-17T08:42:52;99526.25;;;25.29;44.47
55217;BME280;41086;46.736;15.666;2022-07-17T08:46:52;99524.44;;;25.05;50.09
55217;BME280;41086;46.736;15.666;2022-07-17T08:49:20;99509.91;;;24.90;48.54
55217;BME280;41086;46.736;15.666;2022-07-17T08:51:48;99518.91;;;24.74;50.55
55217;BME280;41086;46.736;15.666;2022-07-17T08:54:15;99526.66;;;24.93;52.76
55217;BME280;41086;46.736;15.666;2022-07-17T08:56:43;99501.25;;;24.78;54.18
55217;BME280;41086;46.736;15.666;2022-07-17T08:59:09;99530.34;;;25.25;52.28
55217;BME280;41086;46.736;15.666;2022-07-17T09:01:36;99531.66;;;25.37;50.88
55217;BME280;41086;46.736;15.666;2022-07-17T09:04:04;99529.88;;;25.61;49.60
55217;BME280;41086;46.736;15.666;2022-07-17T09:06:36;99514.38;;;25.70;47.35
55217;BME280;41086;46.736;15.666;2022-07-17T09:09:10;99521.22;;;25.65;45.50
55217;BME280;41086;46.736;15.666;2022-07-17T09:14:12;99512.97;;;25.90;44.97
55217;BME280;41086;46.736;15.666;2022-07-17T09:16:56;99499.19;;;25.60;46.88
55217;BME280;41086;46.736;15.666;2022-07-17T09:22:04;99525.19;;;25.86;46.10
55217;BME280;41086;46.736;15.666;2022-07-17T09:24:54;99522.22;;;26.27;47.94
55217;BME280;41086;46.736;15.666;2022-07-17T09:27:33;99525.56;;;26.60;42.48
55217;BME280;41086;46.736;15.666;2022-07-17T09:30:06;99525.09;;;26.48;44.12
55217;BME280;41086;46.736;15.666;2022-07-17T09:32:34;99529.56;;;25.95;42.25
55217;BME280;41086;46.736;15.666;2022-07-17T09:35:04;99502.59;;;25.54;43.90
55217;BME280;41086;46.736;15.666;2022-07-17T09:37:33;99527.19;;;25.53;45.15
55217;BME280;41086;46.736;15.666;2022-07-17T09:40:00;99518.81;;;25.71;45.28
55217;BME280;41086;46.736;15.666;2022-07-17T09:42:32;99520.69;;;25.62;43.81
55217;BME280;41086;46.736;15.666;2022-07-17T09:45:06;99522.84;;;25.75;45.95
55217;BME280;41086;46.736;15.666;2022-07-17T09:47:36;99519.09;;;25.76;46.56
55217;BME280;41086;46.736;15.666;2022-07-17T09:50:07;99530.34;;;25.64;47.39
55217;BME280;41086;46.736;15.666;2022-07-17T09:52:36;99526.09;;;25.70;43.78
55217;BME280;41086;46.736;15.666;2022-07-17T09:55:05;99517.69;;;25.49;45.44
55217;BME280;41086;46.736;15.666;2022-07-17T09:57:52;99522.09;;;25.58;42.02
55217;BME280;41086;46.736;15.666;2022-07-17T10:00:21;99515.00;;;26.11;43.37
55217;BME280;41086;46.736;15.666;2022-07-17T10:02:49;99518.53;;;26.20;44.54
55217;BME280;41086;46.736;15.666;2022-07-17T10:05:17;99504.09;;;26.42;43.96
55217;BME280;41086;46.736;15.666;2022-07-17T10:07:45;99518.78;;;26.33;42.53
55217;BME280;41086;46.736;15.666;2022-07-17T10:10:14;99523.25;;;26.26;43.45
55217;BME280;41086;46.736;15.666;2022-07-17T10:12:44;99519.25;;;26.14;42.98
55217;BME280;41086;46.736;15.666;2022-07-17T10:15:11;99508.50;;;25.97;44.35
55217;BME280;41086;46.736;15.666;2022-07-17T10:17:38;99507.53;;;25.90;44.86
55217;BME280;41086;46.736;15.666;2022-07-17T10:20:11;99496.00;;;25.88;42.98
55217;BME280;41086;46.736;15.666;2022-07-17T10:22:43;99494.50;;;25.77;48.47
55217;BME280;41086;46.736;15.666;2022-07-17T10:25:15;99495.78;;;25.98;47.83
55217;BME280;41086;46.736;15.666;2022-07-17T10:27:52;99492.50;;;26.48;50.80
55217;BME280;41086;46.736;15.666;2022-07-17T10:30:25;99474.50;;;26.85;45.20
55217;BME280;41086;46.736;15.666;2022-07-17T10:33:01;99481.63;;;27.16;42.69
55217;BME280;41086;46.736;15.666;2022-07-17T10:35:45;99487.09;;;27.46;42.48
55217;BME280;41086;46.736;15.666;2022-07-17T10:38:16;99470.16;;;27.65;46.39
55217;BME280;41086;46.736;15.666;2022-07-17T10:40:45;99484.16;;;27.62;42.08
55217;BME280;41086;46.736;15.666;2022-07-17T10:43:12;99476.06;;;27.69;42.22
55217;BME280;41086;46.736;15.666;2022-07-17T10:45:44;99478.09;;;27.96;43.93
55217;BME280;41086;46.736;15.666;2022-07-17T10:50:43;99465.66;;;27.57;43.15
55217;BME280;41086;46.736;15.666;2022-07-17T10:53:21;99458.66;;;27.84;45.85
55217;BME280;41086;46.736;15.666;2022-07-17T10:56:00;99450.91;;;28.03;45.94
55217;BME280;41086;46.736;15.666;2022-07-17T10:58:39;99451.81;;;28.32;42.25
55217;BME280;41086;46.736;15.666;2022-07-17T11:01:13;99451.66;;;28.61;44.67
55217;BME280;41086;46.736;15.666;2022-07-17T11:03:49;99453.84;;;28.72;39.97
55217;BME280;41086;46.736;15.666;2022-07-17T11:06:21;99452.94;;;28.93;41.74
55217;BME280;41086;46.736;15.666;2022-07-17T11:08:54;99450.31;;;28.50;41.71
55217;BME280;41086;46.736;15.666;2022-07-17T11:16:45;99440.69;;;28.83;40.51
55217;BME280;41086;46.736;15.666;2022-07-17T11:19:12;99433.59;;;28.88;38.74
55217;BME280;41086;46.736;15.666;2022-07-17T11:21:47;99425.56;;;28.80;39.12
55217;BME280;41086;46.736;15.666;2022-07-17T11:24:15;99430.41;;;28.28;38.22
55217;BME280;41086;46.736;15.666;2022-07-17T11:26:42;99419.66;;;27.99;38.58
55217;BME280;41086;46.736;15.666;2022-07-17T11:29:11;99418.59;;;28.21;41.11
55217;BME280;41086;46.736;15.666;2022-07-17T11:31:38;99427.53;;;28.58;40.27
55217;BME280;41086;46.736;15.666;2022-07-17T11:34:07;99413.78;;;28.45;39.59
55217;BME280;41086;46.736;15.666;2022-07-17T11:36:38;99420.03;;;28.67;38.78
55217;BME280;41086;46.736;15.666;2022-07-17T11:39:09;99416.50;;;28.80;37.70
55217;BME280;41086;46.736;15.666;2022-07-17T11:41:45;99412.78;;;29.15;36.59
55217;BME280;41086;46.736;15.666;2022-07-17T11:44:15;99407.97;;;29.24;37.34
55217;BME280;41086;46.736;15.666;2022-07-17T11:46:44;99405.91;;;29.33;37.61
55217;BME280;41086;46.736;15.666;2022-07-17T11:51:52;99367.09;;;29.37;39.73
55217;BME280;41086;46.736;15.666;2022-07-17T11:54:19;99402.63;;;29.51;37.27
55217;BME280;41086;46.736;15.666;2022-07-17T11:56:54;99404.25;;;29.38;35.87
55217;BME280;41086;46.736;15.666;2022-07-17T11:59:26;99394.84;;;29.54;36.56
55217;BME280;41086;46.736;15.666;2022-07-17T12:01:54;99398.72;;;29.80;36.32
55217;BME280;41086;46.736;15.666;2022-07-17T12:04:21;99397.44;;;29.82;40.27
55217;BME280;41086;46.736;15.666;2022-07-17T12:07:01;99393.38;;;29.58;39.04
55217;BME280;41086;46.736;15.666;2022-07-17T12:09:31;99386.75;;;29.81;36.71
55217;BME280;41086;46.736;15.666;2022-07-17T12:12:02;99385.69;;;29.75;37.55
55217;BME280;41086;46.736;15.666;2022-07-17T12:14:30;99376.97;;;29.45;37.57
55217;BME280;41086;46.736;15.666;2022-07-17T12:17:01;99379.34;;;29.62;37.02
55217;BME280;41086;46.736;15.666;2022-07-17T12:19:29;99369.50;;;29.67;36.31
55217;BME280;41086;46.736;15.666;2022-07-17T12:22:03;99387.38;;;29.90;35.80
55217;BME280;41086;46.736;15.666;2022-07-17T12:24:35;99385.31;;;30.32;35.88
55217;BME280;41086;46.736;15.666;2022-07-17T12:27:05;99371.22;;;30.21;35.37
55217;BME280;41086;46.736;15.666;2022-07-17T12:29:32;99374.19;;;30.33;34.08
55217;BME280;41086;46.736;15.666;2022-07-17T12:32:10;99373.75;;;30.43;34.65
55217;BME280;41086;46.736;15.666;2022-07-17T12:34:46;99366.97;;;30.59;34.70
55217;BME280;41086;46.736;15.666;2022-07-17T12:37:16;99354.78;;;30.48;35.38
55217;BME280;41086;46.736;15.666;2022-07-17T12:39:44;99369.34;;;30.35;34.07
55217;BME280;41086;46.736;15.666;2022-07-17T12:42:11;99365.75;;;30.28;37.32
55217;BME280;41086;46.736;15.666;2022-07-17T12:44:38;99369.09;;;30.50;38.12
55217;BME280;41086;46.736;15.666;2022-07-17T12:47:05;99361.53;;;30.52;35.91
55217;BME280;41086;46.736;15.666;2022-07-17T12:49:31;99354.63;;;30.43;34.97
55217;BME280;41086;46.736;15.666;2022-07-17T12:51:58;99352.84;;;30.75;35.42
55217;BME280;41086;46.736;15.666;2022-07-17T12:54:25;99356.34;;;31.02;35.04
55217;BME280;41086;46.736;15.666;2022-07-17T12:56:52;99356.00;;;30.92;34.21
55217;BME280;41086;46.736;15.666;2022-07-17T12:59:20;99355.84;;;31.19;35.63
55217;BME280;41086;46.736;15.666;2022-07-17T13:01:48;99344.56;;;31.08;35.04
55217;BME280;41086;46.736;15.666;2022-07-17T13:04:15;99353.69;;;30.89;35.39
55217;BME280;41086;46.736;15.666;2022-07-17T13:06:42;99345.38;;;31.09;34.93
55217;BME280;41086;46.736;15.666;2022-07-17T13:09:09;99346.88;;;31.05;34.25
55217;BME280;41086;46.736;15.666;2022-07-17T13:11:43;99330.88;;;31.02;36.45